sensor_id;sensor_type;location;lat;lon;timestamp;temperature;humidity
74178;DHT22;62540;48.456;-4.456;2022-10-16T00:01:38;15.56;74.59
74178;DHT22;62540;48.456;-4.456;2022-10-16T00:04:03;15.54;74.99
74178;DHT22;62540;48.456;-4.456;2022-10-16T00:06:29;15.56;74.77
74178;DHT22;62540;48.456;-4.456;2022-10-16T00:08:56;15.53;75.11
74178;DHT22;62540;48.456;-4.456;2022-10-16T00:11:27;15.47;75.27
74178;DHT22;62540;48.456;-4.456;2022-10-16T00:13:57;15.49;75.29
74178;DHT22;62540;48.456;-4.456;2022-10-16T00:16:23;15.49;75.32
74178;DHT22;62540;48.456;-4.456;2022-10-16T00:18:49;15.47;75.24
74178;DHT22;62540;48.456;-4.456;2022-10-16T00:21:20;15.47;75.12
74178;DHT22;62540;48.456;-4.456;2022-10-16T00:23:52;15.47;75.22
74178;DHT22;62540;48.456;-4.456;2022-10-16T00:26:18;15.52;75.08
74178;DHT22;62540;48.456;-4.456;2022-10-16T00:28:48;15.50;75.20
74178;DHT22;62540;48.456;-4.456;2022-10-16T00:31:19;15.49;75.12
74178;DHT22;62540;48.456;-4.456;2022-10-16T00:33:45;15.45;75.21
74178;DHT22;62540;48.456;-4.456;2022-10-16T00:36:14;15.45;75.33
74178;DHT22;62540;48.456;-4.456;2022-10-16T00:38:40;15.45;75.31
74178;DHT22;62540;48.456;-4.456;2022-10-16T00:41:13;15.42;75.46
74178;DHT22;62540;48.456;-4.456;2022-10-16T00:43:43;15.43;75.24
74178;DHT22;62540;48.456;-4.456;2022-10-16T00:49:03;15.46;75.32
74178;DHT22;62540;48.456;-4.456;2022-10-16T00:51:34;15.45;75.70
74178;DHT22;62540;48.456;-4.456;2022-10-16T00:54:01;15.38;75.38
74178;DHT22;62540;48.456;-4.456;2022-10-16T00:56:27;15.43;75.38
74178;DHT22;62540;48.456;-4.456;2022-10-16T00:58:53;15.40;75.63
74178;DHT22;62540;48.456;-4.456;2022-10-16T01:01:18;15.39;75.86
74178;DHT22;62540;48.456;-4.456;2022-10-16T01:03:44;15.39;75.44
74178;DHT22;62540;48.456;-4.456;2022-10-16T01:06:39;15.35;75.46
74178;DHT22;62540;48.456;-4.456;2022-10-16T01:09:21;15.36;75.70
74178;DHT22;62540;48.456;-4.456;2022-10-16T01:14:35;15.36;75.23
74178;DHT22;62540;48.456;-4.456;2022-10-16T01:17:28;15.35;75.34
74178;DHT22;62540;48.456;-4.456;2022-10-16T01:22:37;15.36;75.19
74178;DHT22;62540;48.456;-4.456;2022-10-16T01:25:09;15.33;75.32
74178;DHT22;62540;48.456;-4.456;2022-10-16T01:27:35;15.36;74.98
74178;DHT22;62540;48.456;-4.456;2022-10-16T01:32:50;15.35;74.98
74178;DHT22;62540;48.456;-4.456;2022-10-16T01:35:25;15.35;74.73
74178;DHT22;62540;48.456;-4.456;2022-10-16T01:38:06;15.35;74.53
74178;DHT22;62540;48.456;-4.456;2022-10-16T01:40:36;15.35;74.21
74178;DHT22;62540;48.456;-4.456;2022-10-16T01:43:08;15.33;74.02
74178;DHT22;62540;48.456;-4.456;2022-10-16T01:45:35;15.35;73.89
74178;DHT22;62540;48.456;-4.456;2022-10-16T01:48:02;15.35;73.71
74178;DHT22;62540;48.456;-4.456;2022-10-16T01:50:31;15.32;73.71
74178;DHT22;62540;48.456;-4.456;2022-10-16T01:52:58;15.32;73.92
74178;DHT22;62540;48.456;-4.456;2022-10-16T01:55:31;15.29;73.71
74178;DHT22;62540;48.456;-4.456;2022-10-16T01:57:59;15.28;73.75
74178;DHT22;62540;48.456;-4.456;2022-10-16T02:00:27;15.28;73.82
74178;DHT22;62540;48.456;-4.456;2022-10-16T02:02:54;15.26;73.78
74178;DHT22;62540;48.456;-4.456;2022-10-16T02:05:52;15.22;73.78
74178;DHT22;62540;48.456;-4.456;2022-10-16T02:08:19;15.19;74.22
74178;DHT22;62540;48.456;-4.456;2022-10-16T02:10:46;15.18;74.42
74178;DHT22;62540;48.456;-4.456;2022-10-16T02:15:39;15.14;74.66
74178;DHT22;62540;48.456;-4.456;2022-10-16T02:18:06;15.16;74.50
74178;DHT22;62540;48.456;-4.456;2022-10-16T02:20:40;15.14;74.75
74178;DHT22;62540;48.456;-4.456;2022-10-16T02:23:13;15.14;74.55
74178;DHT22;62540;48.456;-4.456;2022-10-16T02:25:46;15.14;74.33
74178;DHT22;62540;48.456;-4.456;2022-10-16T02:28:17;15.14;74.03
74178;DHT22;62540;48.456;-4.456;2022-10-16T02:30:45;15.12;74.06
74178;DHT22;62540;48.456;-4.456;2022-10-16T02:33:14;15.12;73.97
74178;DHT22;62540;48.456;-4.456;2022-10-16T02:35:41;15.08;73.77
74178;DHT22;62540;48.456;-4.456;2022-10-16T02:38:09;15.06;74.18
74178;DHT22;62540;48.456;-4.456;2022-10-16T02:40:35;15.06;74.49
74178;DHT22;62540;48.456;-4.456;2022-10-16T02:43:03;15.05;74.44
74178;DHT22;62540;48.456;-4.456;2022-10-16T02:45:29;15.01;74.46
74178;DHT22;62540;48.456;-4.456;2022-10-16T02:47:55;15.01;74.24
74178;DHT22;62540;48.456;-4.456;2022-10-16T02:50:20;15.01;73.99
74178;DHT22;62540;48.456;-4.456;2022-10-16T02:52:46;15.01;73.86
74178;DHT22;62540;48.456;-4.456;2022-10-16T02:55:11;14.97;73.95
74178;DHT22;62540;48.456;-4.456;2022-10-16T02:57:36;14.97;73.72
74178;DHT22;62540;48.456;-4.456;2022-10-16T03:00:04;14.97;73.62
74178;DHT22;62540;48.456;-4.456;2022-10-16T03:02:30;14.91;73.58
74178;DHT22;62540;48.456;-4.456;2022-10-16T03:04:55;14.92;74.04
74178;DHT22;62540;48.456;-4.456;2022-10-16T03:07:21;14.88;74.04
74178;DHT22;62540;48.456;-4.456;2022-10-16T03:09:46;14.88;74.03
74178;DHT22;62540;48.456;-4.456;2022-10-16T03:12:12;14.85;73.98
74178;DHT22;62540;48.456;-4.456;2022-10-16T03:14:37;14.85;73.92
74178;DHT22;62540;48.456;-4.456;2022-10-16T03:17:05;14.84;74.02
74178;DHT22;62540;48.456;-4.456;2022-10-16T03:19:30;14.84;74.17
74178;DHT22;62540;48.456;-4.456;2022-10-16T03:21:55;14.84;74.10
74178;DHT22;62540;48.456;-4.456;2022-10-16T03:24:21;14.84;74.30
74178;DHT22;62540;48.456;-4.456;2022-10-16T03:26:46;14.81;73.81
74178;DHT22;62540;48.456;-4.456;2022-10-16T03:29:11;14.77;74.29
74178;DHT22;62540;48.456;-4.456;2022-10-16T03:31:37;14.77;73.94
74178;DHT22;62540;48.456;-4.456;2022-10-16T03:34:02;14.75;73.89
74178;DHT22;62540;48.456;-4.456;2022-10-16T03:36:28;14.74;74.76
74178;DHT22;62540;48.456;-4.456;2022-10-16T03:38:53;14.73;74.68
74178;DHT22;62540;48.456;-4.456;2022-10-16T03:41:19;14.74;75.28
74178;DHT22;62540;48.456;-4.456;2022-10-16T03:43:44;14.70;75.30
74178;DHT22;62540;48.456;-4.456;2022-10-16T03:46:10;14.68;74.97
74178;DHT22;62540;48.456;-4.456;2022-10-16T03:48:35;14.67;74.82
74178;DHT22;62540;48.456;-4.456;2022-10-16T03:51:00;14.67;74.83
74178;DHT22;62540;48.456;-4.456;2022-10-16T03:53:26;14.67;74.76
74178;DHT22;62540;48.456;-4.456;2022-10-16T03:55:51;14.67;74.53
74178;DHT22;62540;48.456;-4.456;2022-10-16T03:58:17;14.64;74.95
74178;DHT22;62540;48.456;-4.456;2022-10-16T04:00:43;14.63;75.00
74178;DHT22;62540;48.456;-4.456;2022-10-16T04:03:10;14.59;74.92
74178;DHT22;62540;48.456;-4.456;2022-10-16T04:05:35;14.57;74.54
74178;DHT22;62540;48.456;-4.456;2022-10-16T04:08:01;14.54;74.71
74178;DHT22;62540;48.456;-4.456;2022-10-16T04:10:26;14.50;75.10
74178;DHT22;62540;48.456;-4.456;2022-10-16T04:12:52;14.51;75.37
74178;DHT22;62540;48.456;-4.456;2022-10-16T04:15:19;14.50;75.50
74178;DHT22;62540;48.456;-4.456;2022-10-16T04:17:45;14.47;75.37
74178;DHT22;62540;48.456;-4.456;2022-10-16T04:20:10;14.44;75.72
74178;DHT22;62540;48.456;-4.456;2022-10-16T04:22:35;14.41;76.44
74178;DHT22;62540;48.456;-4.456;2022-10-16T04:25:01;14.44;75.87
74178;DHT22;62540;48.456;-4.456;2022-10-16T04:27:26;14.47;75.68
74178;DHT22;62540;48.456;-4.456;2022-10-16T04:29:53;14.43;75.70
74178;DHT22;62540;48.456;-4.456;2022-10-16T04:32:18;14.44;76.05
74178;DHT22;62540;48.456;-4.456;2022-10-16T04:34:44;14.39;76.30
74178;DHT22;62540;48.456;-4.456;2022-10-16T04:37:09;14.36;76.66
74178;DHT22;62540;48.456;-4.456;2022-10-16T04:39:35;14.33;76.64
74178;DHT22;62540;48.456;-4.456;2022-10-16T04:42:00;14.30;76.71
74178;DHT22;62540;48.456;-4.456;2022-10-16T04:44:25;14.33;76.42
74178;DHT22;62540;48.456;-4.456;2022-10-16T04:46:51;14.32;76.51
74178;DHT22;62540;48.456;-4.456;2022-10-16T04:49:17;14.30;76.12
74178;DHT22;62540;48.456;-4.456;2022-10-16T04:51:42;14.29;76.81
74178;DHT22;62540;48.456;-4.456;2022-10-16T04:54:09;14.29;77.16
74178;DHT22;62540;48.456;-4.456;2022-10-16T04:56:34;14.26;77.16
74178;DHT22;62540;48.456;-4.456;2022-10-16T04:59:05;14.29;76.61
74178;DHT22;62540;48.456;-4.456;2022-10-16T05:01:30;14.32;76.82
74178;DHT22;62540;48.456;-4.456;2022-10-16T05:03:56;14.32;76.43
74178;DHT22;62540;48.456;-4.456;2022-10-16T05:06:21;14.29;76.58
74178;DHT22;62540;48.456;-4.456;2022-10-16T05:08:47;14.30;76.65
74178;DHT22;62540;48.456;-4.456;2022-10-16T05:11:12;14.30;77.45
74178;DHT22;62540;48.456;-4.456;2022-10-16T05:13:38;14.33;77.84
74178;DHT22;62540;48.456;-4.456;2022-10-16T05:16:03;14.30;77.11
74178;DHT22;62540;48.456;-4.456;2022-10-16T05:18:29;14.32;77.17
74178;DHT22;62540;48.456;-4.456;2022-10-16T05:20:54;14.32;76.90
74178;DHT22;62540;48.456;-4.456;2022-10-16T05:23:19;14.34;76.83
74178;DHT22;62540;48.456;-4.456;2022-10-16T05:25:55;14.36;76.80
74178;DHT22;62540;48.456;-4.456;2022-10-16T05:28:20;14.36;77.26
74178;DHT22;62540;48.456;-4.456;2022-10-16T05:30:46;14.37;77.78
74178;DHT22;62540;48.456;-4.456;2022-10-16T05:33:11;14.39;77.72
74178;DHT22;62540;48.456;-4.456;2022-10-16T05:35:37;14.37;77.33
74178;DHT22;62540;48.456;-4.456;2022-10-16T05:38:02;14.39;77.35
74178;DHT22;62540;48.456;-4.456;2022-10-16T05:40:28;14.41;76.89
74178;DHT22;62540;48.456;-4.456;2022-10-16T05:42:56;14.43;77.24
74178;DHT22;62540;48.456;-4.456;2022-10-16T05:45:22;14.41;76.78
74178;DHT22;62540;48.456;-4.456;2022-10-16T05:47:47;14.43;76.86
74178;DHT22;62540;48.456;-4.456;2022-10-16T05:50:12;14.44;76.83
74178;DHT22;62540;48.456;-4.456;2022-10-16T05:52:38;14.43;76.71
74178;DHT22;62540;48.456;-4.456;2022-10-16T05:55:04;14.43;76.94
74178;DHT22;62540;48.456;-4.456;2022-10-16T05:57:29;14.39;76.86
74178;DHT22;62540;48.456;-4.456;2022-10-16T05:59:55;14.39;76.30
74178;DHT22;62540;48.456;-4.456;2022-10-16T06:02:21;14.37;76.43
74178;DHT22;62540;48.456;-4.456;2022-10-16T06:04:46;14.36;76.21
74178;DHT22;62540;48.456;-4.456;2022-10-16T06:07:12;14.37;76.05
74178;DHT22;62540;48.456;-4.456;2022-10-16T06:09:37;14.34;76.47
74178;DHT22;62540;48.456;-4.456;2022-10-16T06:12:02;14.33;76.69
74178;DHT22;62540;48.456;-4.456;2022-10-16T06:14:28;14.34;76.79
74178;DHT22;62540;48.456;-4.456;2022-10-16T06:16:53;14.33;76.93
74178;DHT22;62540;48.456;-4.456;2022-10-16T06:19:19;14.32;76.86
74178;DHT22;62540;48.456;-4.456;2022-10-16T06:21:44;14.26;76.98
74178;DHT22;62540;48.456;-4.456;2022-10-16T06:24:10;14.22;76.92
74178;DHT22;62540;48.456;-4.456;2022-10-16T06:26:35;14.22;77.42
74178;DHT22;62540;48.456;-4.456;2022-10-16T06:29:01;14.19;77.29
74178;DHT22;62540;48.456;-4.456;2022-10-16T06:31:27;14.13;77.37
74178;DHT22;62540;48.456;-4.456;2022-10-16T06:33:56;14.15;77.25
74178;DHT22;62540;48.456;-4.456;2022-10-16T06:36:23;14.15;77.40
74178;DHT22;62540;48.456;-4.456;2022-10-16T06:38:48;14.15;77.08
74178;DHT22;62540;48.456;-4.456;2022-10-16T06:41:16;14.12;77.35
74178;DHT22;62540;48.456;-4.456;2022-10-16T06:43:42;14.10;76.89
74178;DHT22;62540;48.456;-4.456;2022-10-16T06:46:11;14.09;77.04
74178;DHT22;62540;48.456;-4.456;2022-10-16T06:48:37;14.10;77.17
74178;DHT22;62540;48.456;-4.456;2022-10-16T06:51:11;14.10;77.09
74178;DHT22;62540;48.456;-4.456;2022-10-16T06:53:40;14.10;77.29
74178;DHT22;62540;48.456;-4.456;2022-10-16T06:56:13;14.09;77.70
74178;DHT22;62540;48.456;-4.456;2022-10-16T06:58:39;14.08;77.93
74178;DHT22;62540;48.456;-4.456;2022-10-16T07:01:06;14.10;77.69
74178;DHT22;62540;48.456;-4.456;2022-10-16T07:03:31;14.12;77.90
74178;DHT22;62540;48.456;-4.456;2022-10-16T07:06:00;14.08;78.82
74178;DHT22;62540;48.456;-4.456;2022-10-16T07:08:26;14.09;78.23
74178;DHT22;62540;48.456;-4.456;2022-10-16T07:10:58;14.12;77.84
74178;DHT22;62540;48.456;-4.456;2022-10-16T07:13:24;14.15;77.83
74178;DHT22;62540;48.456;-4.456;2022-10-16T07:15:50;14.19;78.03
74178;DHT22;62540;48.456;-4.456;2022-10-16T07:18:15;14.19;78.07
74178;DHT22;62540;48.456;-4.456;2022-10-16T07:20:41;14.22;78.06
74178;DHT22;62540;48.456;-4.456;2022-10-16T07:23:06;14.16;78.27
74178;DHT22;62540;48.456;-4.456;2022-10-16T07:25:31;14.19;78.05
74178;DHT22;62540;48.456;-4.456;2022-10-16T07:27:57;14.26;78.31
74178;DHT22;62540;48.456;-4.456;2022-10-16T07:30:22;14.25;78.39
74178;DHT22;62540;48.456;-4.456;2022-10-16T07:32:48;14.25;78.10
74178;DHT22;62540;48.456;-4.456;2022-10-16T07:35:13;14.26;78.15
74178;DHT22;62540;48.456;-4.456;2022-10-16T07:37:39;14.34;78.23
74178;DHT22;62540;48.456;-4.456;2022-10-16T07:40:05;14.34;78.14
74178;DHT22;62540;48.456;-4.456;2022-10-16T07:42:30;14.43;78.20
74178;DHT22;62540;48.456;-4.456;2022-10-16T07:44:56;14.44;78.05
74178;DHT22;62540;48.456;-4.456;2022-10-16T07:47:21;14.53;77.98
74178;DHT22;62540;48.456;-4.456;2022-10-16T07:49:46;14.53;78.23
74178;DHT22;62540;48.456;-4.456;2022-10-16T07:52:12;14.57;78.03
74178;DHT22;62540;48.456;-4.456;2022-10-16T07:54:37;14.53;78.67
74178;DHT22;62540;48.456;-4.456;2022-10-16T07:57:03;14.53;78.83
74178;DHT22;62540;48.456;-4.456;2022-10-16T07:59:28;14.57;79.01
74178;DHT22;62540;48.456;-4.456;2022-10-16T08:01:53;14.60;78.74
74178;DHT22;62540;48.456;-4.456;2022-10-16T08:04:19;14.67;78.79
74178;DHT22;62540;48.456;-4.456;2022-10-16T08:06:44;14.75;78.61
74178;DHT22;62540;48.456;-4.456;2022-10-16T08:09:09;14.80;78.52
74178;DHT22;62540;48.456;-4.456;2022-10-16T08:11:35;14.83;78.60
74178;DHT22;62540;48.456;-4.456;2022-10-16T08:14:01;14.81;78.80
74178;DHT22;62540;48.456;-4.456;2022-10-16T08:16:26;14.84;79.04
74178;DHT22;62540;48.456;-4.456;2022-10-16T08:18:51;14.88;79.14
74178;DHT22;62540;48.456;-4.456;2022-10-16T08:21:19;14.85;79.45
74178;DHT22;62540;48.456;-4.456;2022-10-16T08:23:46;14.89;79.35
74178;DHT22;62540;48.456;-4.456;2022-10-16T08:26:12;14.95;79.15
74178;DHT22;62540;48.456;-4.456;2022-10-16T08:28:38;15.02;79.14
74178;DHT22;62540;48.456;-4.456;2022-10-16T08:31:13;15.12;78.99
74178;DHT22;62540;48.456;-4.456;2022-10-16T08:33:42;15.12;79.16
74178;DHT22;62540;48.456;-4.456;2022-10-16T08:36:09;15.22;78.93
74178;DHT22;62540;48.456;-4.456;2022-10-16T08:38:35;15.24;79.21
74178;DHT22;62540;48.456;-4.456;2022-10-16T08:44:20;15.36;79.25
74178;DHT22;62540;48.456;-4.456;2022-10-16T08:47:11;15.40;79.16
74178;DHT22;62540;48.456;-4.456;2022-10-16T08:49:40;15.47;78.83
74178;DHT22;62540;48.456;-4.456;2022-10-16T08:52:12;15.52;78.68
74178;DHT22;62540;48.456;-4.456;2022-10-16T08:54:42;15.62;78.62
74178;DHT22;62540;48.456;-4.456;2022-10-16T08:57:16;15.67;78.49
74178;DHT22;62540;48.456;-4.456;2022-10-16T08:59:42;15.71;78.42
74178;DHT22;62540;48.456;-4.456;2022-10-16T09:02:37;15.79;78.44
74178;DHT22;62540;48.456;-4.456;2022-10-16T09:15:58;15.90;78.16
74178;DHT22;62540;48.456;-4.456;2022-10-16T09:18:37;15.84;78.63
74178;DHT22;62540;48.456;-4.456;2022-10-16T09:23:40;16.00;78.17
74178;DHT22;62540;48.456;-4.456;2022-10-16T09:28:35;16.11;78.08
74178;DHT22;62540;48.456;-4.456;2022-10-16T09:31:01;16.14;77.58
74178;DHT22;62540;48.456;-4.456;2022-10-16T09:33:34;16.17;77.46
74178;DHT22;62540;48.456;-4.456;2022-10-16T09:36:03;16.26;77.70
74178;DHT22;62540;48.456;-4.456;2022-10-16T09:38:32;16.31;77.47
74178;DHT22;62540;48.456;-4.456;2022-10-16T09:41:21;16.36;77.28
74178;DHT22;62540;48.456;-4.456;2022-10-16T09:43:57;16.44;77.03
74178;DHT22;62540;48.456;-4.456;2022-10-16T09:48:58;16.41;76.45
74178;DHT22;62540;48.456;-4.456;2022-10-16T09:54:11;16.47;76.40
74178;DHT22;62540;48.456;-4.456;2022-10-16T09:56:38;16.48;76.52
74178;DHT22;62540;48.456;-4.456;2022-10-16T09:59:14;16.47;76.08
74178;DHT22;62540;48.456;-4.456;2022-10-16T10:01:43;16.47;75.98
74178;DHT22;62540;48.456;-4.456;2022-10-16T10:04:10;16.47;76.44
74178;DHT22;62540;48.456;-4.456;2022-10-16T10:06:53;16.42;76.35
74178;DHT22;62540;48.456;-4.456;2022-10-16T10:09:26;16.44;76.34
74178;DHT22;62540;48.456;-4.456;2022-10-16T10:17:22;16.44;77.24
74178;DHT22;62540;48.456;-4.456;2022-10-16T10:19:55;16.44;77.46
74178;DHT22;62540;48.456;-4.456;2022-10-16T10:22:43;16.42;77.59
74178;DHT22;62540;48.456;-4.456;2022-10-16T10:27:49;16.45;77.60
74178;DHT22;62540;48.456;-4.456;2022-10-16T10:30:37;16.40;78.14
74178;DHT22;62540;48.456;-4.456;2022-10-16T10:36:39;16.47;78.13
74178;DHT22;62540;48.456;-4.456;2022-10-16T10:39:05;16.47;78.19
74178;DHT22;62540;48.456;-4.456;2022-10-16T10:44:29;16.56;78.49
74178;DHT22;62540;48.456;-4.456;2022-10-16T10:47:01;16.53;78.60
74178;DHT22;62540;48.456;-4.456;2022-10-16T10:55:09;16.61;78.62
74178;DHT22;62540;48.456;-4.456;2022-10-16T11:06:50;16.47;79.40
74178;DHT22;62540;48.456;-4.456;2022-10-16T11:08:55;16.53;79.13
74178;DHT22;62540;48.456;-4.456;2022-10-16T11:16:45;16.76;79.04
74178;DHT22;62540;48.456;-4.456;2022-10-16T11:19:22;16.80;79.33
74178;DHT22;62540;48.456;-4.456;2022-10-16T11:22:02;16.83;78.96
74178;DHT22;62540;48.456;-4.456;2022-10-16T11:24:39;16.86;78.81
74178;DHT22;62540;48.456;-4.456;2022-10-16T11:27:09;16.86;78.83
74178;DHT22;62540;48.456;-4.456;2022-10-16T11:32:47;16.83;79.06
74178;DHT22;62540;48.456;-4.456;2022-10-16T11:35:21;16.87;79.33
74178;DHT22;62540;48.456;-4.456;2022-10-16T11:37:49;16.87;79.39
74178;DHT22;62540;48.456;-4.456;2022-10-16T11:40:32;16.87;79.65
74178;DHT22;62540;48.456;-4.456;2022-10-16T11:43:10;16.93;79.63
74178;DHT22;62540;48.456;-4.456;2022-10-16T11:45:48;16.93;79.41
74178;DHT22;62540;48.456;-4.456;2022-10-16T11:51:11;16.96;79.89
74178;DHT22;62540;48.456;-4.456;2022-10-16T11:56:45;16.94;80.02
74178;DHT22;62540;48.456;-4.456;2022-10-16T12:01:51;16.96;80.41
74178;DHT22;62540;48.456;-4.456;2022-10-16T12:04:40;16.99;80.44
74178;DHT22;62540;48.456;-4.456;2022-10-16T12:07:17;17.02;80.14
74178;DHT22;62540;48.456;-4.456;2022-10-16T12:09:44;17.03;80.47
74178;DHT22;62540;48.456;-4.456;2022-10-16T12:15:20;17.11;79.93
74178;DHT22;62540;48.456;-4.456;2022-10-16T12:17:46;17.10;80.68
74178;DHT22;62540;48.456;-4.456;2022-10-16T12:22:41;17.07;81.06
74178;DHT22;62540;48.456;-4.456;2022-10-16T12:30:42;17.07;81.46
74178;DHT22;62540;48.456;-4.456;2022-10-16T12:33:36;17.10;81.71
74178;DHT22;62540;48.456;-4.456;2022-10-16T12:36:14;17.06;81.98
74178;DHT22;62540;48.456;-4.456;2022-10-16T12:38:50;17.06;81.80
74178;DHT22;62540;48.456;-4.456;2022-10-16T12:41:29;17.03;82.27
74178;DHT22;62540;48.456;-4.456;2022-10-16T12:43:55;17.06;82.06
74178;DHT22;62540;48.456;-4.456;2022-10-16T12:51:41;17.07;82.53
74178;DHT22;62540;48.456;-4.456;2022-10-16T12:56:54;17.13;83.56
74178;DHT22;62540;48.456;-4.456;2022-10-16T13:05:32;17.19;83.87
74178;DHT22;62540;48.456;-4.456;2022-10-16T13:11:03;17.26;84.08
74178;DHT22;62540;48.456;-4.456;2022-10-16T13:14:02;17.26;84.24
74178;DHT22;62540;48.456;-4.456;2022-10-16T13:21:38;17.37;84.95
74178;DHT22;62540;48.456;-4.456;2022-10-16T13:27:07;17.40;84.99
74178;DHT22;62540;48.456;-4.456;2022-10-16T13:29:33;17.42;84.81
74178;DHT22;62540;48.456;-4.456;2022-10-16T13:32:01;17.47;85.24
74178;DHT22;62540;48.456;-4.456;2022-10-16T13:34:32;17.49;84.89
74178;DHT22;62540;48.456;-4.456;2022-10-16T13:36:57;17.52;85.06
74178;DHT22;62540;48.456;-4.456;2022-10-16T13:42:10;17.62;84.20
74178;DHT22;62540;48.456;-4.456;2022-10-16T13:44:42;17.64;84.94
74178;DHT22;62540;48.456;-4.456;2022-10-16T13:47:20;17.68;84.95
74178;DHT22;62540;48.456;-4.456;2022-10-16T13:49:46;17.65;85.03
74178;DHT22;62540;48.456;-4.456;2022-10-16T13:52:20;17.69;84.99
74178;DHT22;62540;48.456;-4.456;2022-10-16T13:54:47;17.71;84.64
74178;DHT22;62540;48.456;-4.456;2022-10-16T13:57:14;17.81;84.75
74178;DHT22;62540;48.456;-4.456;2022-10-16T13:59:40;17.79;84.61
74178;DHT22;62540;48.456;-4.456;2022-10-16T14:02:28;17.86;84.33
74178;DHT22;62540;48.456;-4.456;2022-10-16T14:04:55;17.90;84.23
74178;DHT22;62540;48.456;-4.456;2022-10-16T14:07:27;17.92;84.33
74178;DHT22;62540;48.456;-4.456;2022-10-16T14:09:53;17.90;84.32
74178;DHT22;62540;48.456;-4.456;2022-10-16T14:12:19;17.96;84.21
74178;DHT22;62540;48.456;-4.456;2022-10-16T14:14:52;18.06;83.81
74178;DHT22;62540;48.456;-4.456;2022-10-16T14:17:23;18.05;83.81
74178;DHT22;62540;48.456;-4.456;2022-10-16T14:19:52;18.07;83.81
74178;DHT22;62540;48.456;-4.456;2022-10-16T14:22:27;18.03;83.77
74178;DHT22;62540;48.456;-4.456;2022-10-16T14:24:53;18.09;83.80
74178;DHT22;62540;48.456;-4.456;2022-10-16T14:27:37;18.09;83.87
74178;DHT22;62540;48.456;-4.456;2022-10-16T14:32:36;18.16;83.73
74178;DHT22;62540;48.456;-4.456;2022-10-16T14:35:02;18.14;83.59
74178;DHT22;62540;48.456;-4.456;2022-10-16T14:37:29;18.12;83.75
74178;DHT22;62540;48.456;-4.456;2022-10-16T14:39:55;18.13;83.61
74178;DHT22;62540;48.456;-4.456;2022-10-16T14:42:22;18.14;83.80
74178;DHT22;62540;48.456;-4.456;2022-10-16T14:44:50;18.16;83.64
74178;DHT22;62540;48.456;-4.456;2022-10-16T14:47:22;18.17;83.56
74178;DHT22;62540;48.456;-4.456;2022-10-16T14:49:52;18.23;83.27
74178;DHT22;62540;48.456;-4.456;2022-10-16T14:52:20;18.20;83.37
74178;DHT22;62540;48.456;-4.456;2022-10-16T14:54:49;18.14;83.73
74178;DHT22;62540;48.456;-4.456;2022-10-16T14:57:19;18.19;83.58
74178;DHT22;62540;48.456;-4.456;2022-10-16T14:59:46;18.16;83.57
74178;DHT22;62540;48.456;-4.456;2022-10-16T15:02:35;18.23;83.39
74178;DHT22;62540;48.456;-4.456;2022-10-16T15:07:44;18.20;83.26
74178;DHT22;62540;48.456;-4.456;2022-10-16T15:10:11;18.17;83.34
74178;DHT22;62540;48.456;-4.456;2022-10-16T15:12:37;18.16;83.32
74178;DHT22;62540;48.456;-4.456;2022-10-16T15:15:21;18.22;83.30
74178;DHT22;62540;48.456;-4.456;2022-10-16T15:17:46;18.20;83.28
74178;DHT22;62540;48.456;-4.456;2022-10-16T15:20:13;18.20;83.16
74178;DHT22;62540;48.456;-4.456;2022-10-16T15:22:38;18.20;83.16
74178;DHT22;62540;48.456;-4.456;2022-10-16T15:27:58;18.20;83.47
74178;DHT22;62540;48.456;-4.456;2022-10-16T15:30:24;18.20;83.53
74178;DHT22;62540;48.456;-4.456;2022-10-16T15:32:49;18.26;83.12
74178;DHT22;62540;48.456;-4.456;2022-10-16T15:35:15;18.25;83.16
74178;DHT22;62540;48.456;-4.456;2022-10-16T15:37:40;18.25;83.12
74178;DHT22;62540;48.456;-4.456;2022-10-16T15:40:06;18.27;83.13
74178;DHT22;62540;48.456;-4.456;2022-10-16T15:42:32;18.19;83.65
74178;DHT22;62540;48.456;-4.456;2022-10-16T15:44:57;18.22;83.56
74178;DHT22;62540;48.456;-4.456;2022-10-16T15:47:22;18.19;83.67
74178;DHT22;62540;48.456;-4.456;2022-10-16T15:49:48;18.17;83.80
74178;DHT22;62540;48.456;-4.456;2022-10-16T15:52:13;18.22;83.68
74178;DHT22;62540;48.456;-4.456;2022-10-16T15:54:39;18.23;83.70
74178;DHT22;62540;48.456;-4.456;2022-10-16T15:57:04;18.23;83.70
74178;DHT22;62540;48.456;-4.456;2022-10-16T15:59:30;18.25;83.94
74178;DHT22;62540;48.456;-4.456;2022-10-16T16:01:55;18.26;83.58
74178;DHT22;62540;48.456;-4.456;2022-10-16T16:04:20;18.23;83.83
74178;DHT22;62540;48.456;-4.456;2022-10-16T16:06:46;18.23;83.76
74178;DHT22;62540;48.456;-4.456;2022-10-16T16:09:12;18.22;83.83
74178;DHT22;62540;48.456;-4.456;2022-10-16T16:11:39;18.20;83.70
74178;DHT22;62540;48.456;-4.456;2022-10-16T16:14:10;18.16;84.09
74178;DHT22;62540;48.456;-4.456;2022-10-16T16:16:36;18.20;83.95
74178;DHT22;62540;48.456;-4.456;2022-10-16T16:19:06;18.26;83.75
74178;DHT22;62540;48.456;-4.456;2022-10-16T16:21:33;18.26;83.48
74178;DHT22;62540;48.456;-4.456;2022-10-16T16:23:59;18.32;83.46
74178;DHT22;62540;48.456;-4.456;2022-10-16T16:26:28;18.32;83.66
74178;DHT22;62540;48.456;-4.456;2022-10-16T16:28:57;18.32;83.49
74178;DHT22;62540;48.456;-4.456;2022-10-16T16:31:24;18.34;83.38
74178;DHT22;62540;48.456;-4.456;2022-10-16T16:33:50;18.38;83.45
74178;DHT22;62540;48.456;-4.456;2022-10-16T16:36:17;18.37;83.18
74178;DHT22;62540;48.456;-4.456;2022-10-16T16:38:43;18.33;83.69
74178;DHT22;62540;48.456;-4.456;2022-10-16T16:41:20;18.29;83.59
74178;DHT22;62540;48.456;-4.456;2022-10-16T16:43:46;18.30;83.59
74178;DHT22;62540;48.456;-4.456;2022-10-16T16:46:13;18.38;83.42
74178;DHT22;62540;48.456;-4.456;2022-10-16T16:48:39;18.38;83.21
74178;DHT22;62540;48.456;-4.456;2022-10-16T16:51:13;18.41;83.07
74178;DHT22;62540;48.456;-4.456;2022-10-16T16:53:43;18.40;83.03
74178;DHT22;62540;48.456;-4.456;2022-10-16T16:56:09;18.43;83.01
74178;DHT22;62540;48.456;-4.456;2022-10-16T16:58:35;18.40;83.43
74178;DHT22;62540;48.456;-4.456;2022-10-16T17:01:00;18.41;83.21
74178;DHT22;62540;48.456;-4.456;2022-10-16T17:03:31;18.41;83.07
74178;DHT22;62540;48.456;-4.456;2022-10-16T17:05:58;18.43;83.20
74178;DHT22;62540;48.456;-4.456;2022-10-16T17:08:24;18.43;83.21
74178;DHT22;62540;48.456;-4.456;2022-10-16T17:10:50;18.48;83.11
74178;DHT22;62540;48.456;-4.456;2022-10-16T17:13:19;18.41;83.59
74178;DHT22;62540;48.456;-4.456;2022-10-16T17:15:48;18.40;83.61
74178;DHT22;62540;48.456;-4.456;2022-10-16T17:18:14;18.36;83.55
74178;DHT22;62540;48.456;-4.456;2022-10-16T17:20:40;18.34;83.65
74178;DHT22;62540;48.456;-4.456;2022-10-16T17:23:07;18.34;83.61
74178;DHT22;62540;48.456;-4.456;2022-10-16T17:25:35;18.32;83.45
74178;DHT22;62540;48.456;-4.456;2022-10-16T17:28:01;18.30;83.14
74178;DHT22;62540;48.456;-4.456;2022-10-16T17:30:27;18.26;83.22
74178;DHT22;62540;48.456;-4.456;2022-10-16T17:32:53;18.27;83.13
74178;DHT22;62540;48.456;-4.456;2022-10-16T17:35:18;18.26;83.11